Pacatello Regional Airport

Airport
ICAO code: 
KPIH
Summary
ICAO Region: 
NAM
Territory: 
Location: 
Pacatello, Idaho,
Coordinates: 
Aerial View: 
42° 54' 42.048" N, 112° 35' 22.115" W
Airport CFIT: 
Altimeter Temperature Error Correction
Airport RE: 
Hot and High Operations
Metar
Observation
KPIH 040653Z AUTO 00000KT 10SM CLR M04/M05 A3020 RMK AO2 SLP238 T10391050 401221039
Station
Pocatello, Pocatello Regional Airport
Date/Time
2021-12-04 06:53:00
Wind direction
Wind speed
00 kts
Lowest cloud amount
n/a
Temperature
-3.9°C
Dew point
-5°C
Humidity
92%
Weather condition
n/a

Description

Pocatello Regional Airport is a public airport located about 11kmwest of the city of Pocatello, in Power County, Idaho.

Climatology

Cold Semi-arid climate (Köppen climate classification BSk). - Hot, sometimes extremely hot summers and cold, sometimes very cold winters. Some snowfall during the winter. Areas featuring cold semi-arid climates are sometimes subject to major temperature swings during a 24 hour period.

Runways

Designator Length Width Surface Rops
17/35 2179 30 ASP Yes/Yes
3/21 2761 46 ASP Yes/Yes
Airport map: 
Aerial View: 

SKYbrary Partners:

Safety knowledge contributed by: